Time;durP1;ratioP1;P1;durP2;ratioP2;P2;SDS_P1;SDS_P2;PMS_P1;PMS_P2;Temp;Humidity;BMP_temperature;BMP_pressure;BME280_temperature;BME280_humidity;BME280_pressure;Samples;Min_cycle;Max_cycle;Signal;HPM_P1;HPM_P2
2021/08/02 00:01:07;;;;;;;6.03;5.43;;;22.70;58.30;;;;;;5004255;28;20175;-80
2021/08/02 00:03:42;;;;;;;5.82;5.22;;;22.80;58.30;;;;;;5054175;28;20622;-80
2021/08/02 00:06:13;;;;;;;6.10;5.38;;;22.70;58.30;;;;;;5068203;28;20191;-80
2021/08/02 00:08:40;;;;;;;5.68;5.07;;;22.70;58.30;;;;;;5082742;28;20215;-80
2021/08/02 00:11:06;;;;;;;5.80;5.28;;;22.70;58.30;;;;;;5002988;28;20262;-81
2021/08/02 00:13:38;;;;;;;7.57;5.60;;;22.70;58.40;;;;;;4986974;28;20175;-80
2021/08/02 00:16:05;;;;;;;6.07;5.47;;;22.70;58.40;;;;;;4969788;28;20176;-80
2021/08/02 00:18:32;;;;;;;5.90;5.30;;;22.70;58.30;;;;;;5003302;28;20192;-80
2021/08/02 00:21:04;;;;;;;5.72;5.00;;;22.70;58.40;;;;;;5002988;28;20152;-80
2021/08/02 00:23:35;;;;;;;6.53;5.53;;;22.70;58.40;;;;;;5070287;28;20326;-80
2021/08/02 00:26:05;;;;;;;6.07;5.43;;;22.60;58.30;;;;;;5070535;28;20195;-80
2021/08/02 00:28:31;;;;;;;6.18;5.50;;;22.70;58.50;;;;;;4987019;28;20233;-80
2021/08/02 00:30:57;;;;;;;6.40;5.38;;;22.70;58.40;;;;;;4987151;28;20165;-80
2021/08/02 00:33:23;;;;;;;6.38;5.50;;;22.60;58.40;;;;;;5003322;28;20160;-80
2021/08/02 00:35:56;;;;;;;5.97;5.38;;;22.60;58.40;;;;;;5002843;28;20596;-80
2021/08/02 00:38:29;;;;;;;5.93;5.25;;;22.60;58.50;;;;;;5003484;28;20204;-80
2021/08/02 00:41:15;;;;;;;5.90;5.30;;;22.70;58.50;;;;;;5003669;28;20196;-80
2021/08/02 00:44:02;;;;;;;5.90;5.30;;;22.70;58.50;;;;;;5048864;28;20187;-80
2021/08/02 00:46:34;;;;;;;5.95;5.32;;;22.60;58.40;;;;;;5002550;28;20164;-80
2021/08/02 00:49:08;;;;;;;6.03;5.43;;;22.60;58.40;;;;;;5053172;28;20203;-80
2021/08/02 00:51:38;;;;;;;6.47;5.30;;;22.70;58.50;;;;;;4954325;28;20581;-80
2021/08/02 00:54:06;;;;;;;5.65;5.07;;;22.60;58.40;;;;;;5002520;28;20186;-80
2021/08/02 00:56:38;;;;;;;5.82;5.22;;;22.60;58.50;;;;;;5003043;28;20163;-80
2021/08/02 00:59:06;;;;;;;5.78;5.18;;;22.60;58.50;;;;;;4986434;28;20216;-80
2021/08/02 01:01:37;;;;;;;6.05;5.38;;;22.60;58.50;;;;;;5040562;28;20194;-80
2021/08/02 01:04:07;;;;;;;6.03;5.38;;;22.50;58.50;;;;;;5040853;28;20187;-80
2021/08/02 01:06:35;;;;;;;6.55;5.40;;;22.60;58.60;;;;;;5005116;28;20188;-80
2021/08/02 01:09:04;;;;;;;6.07;5.45;;;22.60;58.50;;;;;;4989028;28;20228;-80
2021/08/02 01:11:32;;;;;;;6.07;5.38;;;22.60;58.60;;;;;;5005951;28;20279;-80
2021/08/02 01:14:01;;;;;;;5.95;5.35;;;22.60;58.60;;;;;;5040626;28;20667;-82
2021/08/02 01:16:33;;;;;;;6.32;5.60;;;22.60;58.60;;;;;;4989639;28;20195;-80
2021/08/02 01:19:00;;;;;;;6.63;5.38;;;22.60;58.60;;;;;;5057695;28;20261;-80
2021/08/02 01:21:27;;;;;;;5.95;5.10;;;22.60;58.60;;;;;;5056671;28;20199;-80
2021/08/02 01:23:54;;;;;;;5.78;5.10;;;22.60;58.60;;;;;;4956359;28;20210;-80
2021/08/02 01:26:54;;;;;;;6.50;5.30;;;22.60;58.60;;;;;;5056301;28;20657;-80
2021/08/02 01:29:53;;;;;;;6.57;5.28;;;22.60;58.60;;;;;;4992302;28;20172;-80
2021/08/02 01:32:20;;;;;;;6.18;5.38;;;22.60;58.70;;;;;;5005575;28;20174;-80
2021/08/02 01:34:51;;;;;;;6.15;5.32;;;22.60;58.60;;;;;;5040564;28;20207;-80
2021/08/02 01:37:20;;;;;;;5.65;5.05;;;22.60;58.70;;;;;;5073259;28;20180;-80
2021/08/02 01:39:57;;;;;;;5.22;4.70;;;22.60;58.60;;;;;;5056870;28;20223;-80
2021/08/02 01:42:24;;;;;;;6.35;5.40;;;22.60;58.60;;;;;;5056678;28;20243;-80
2021/08/02 01:44:50;;;;;;;8.00;5.50;;;22.60;58.60;;;;;;5005133;28;20254;-80
2021/08/02 01:47:28;;;;;;;5.80;5.20;;;22.60;58.70;;;;;;5005053;28;20612;-80
2021/08/02 01:50:04;;;;;;;5.75;5.15;;;22.60;58.60;;;;;;5005576;28;20206;-80
2021/08/02 01:52:54;;;;;;;6.22;5.45;;;22.60;58.60;;;;;;5005636;28;20164;-80
2021/08/02 01:55:26;;;;;;;6.47;5.45;;;22.60;58.60;;;;;;4989829;28;20180;-80
2021/08/02 01:58:00;;;;;;;6.30;5.45;;;22.60;58.70;;;;;;5004372;28;20212;-80
2021/08/02 02:00:27;;;;;;;5.88;5.28;;;22.60;58.70;;;;;;5055929;28;20210;-80
2021/08/02 02:03:08;;;;;;;5.82;5.10;;;22.50;58.50;;;;;;5021563;28;20160;-80
2021/08/02 02:05:37;;;;;;;5.85;5.15;;;22.60;58.60;;;;;;4988386;28;20174;-80
2021/08/02 02:08:15;;;;;;;5.50;4.95;;;22.60;58.70;;;;;;5023985;28;20223;-81
2021/08/02 02:10:45;;;;;;;5.65;5.15;;;22.60;58.60;;;;;;5008627;28;20171;-80
2021/08/02 02:13:18;;;;;;;5.30;4.80;;;22.60;58.70;;;;;;5008168;28;20168;-80
2021/08/02 02:15:46;;;;;;;5.72;5.15;;;22.50;58.60;;;;;;5024729;28;20187;-80
2021/08/02 02:18:12;;;;;;;6.63;5.60;;;22.60;58.70;;;;;;5007944;28;20202;-80
2021/08/02 02:20:39;;;;;;;6.20;5.60;;;22.60;58.80;;;;;;5008089;28;20171;-80
2021/08/02 02:23:10;;;;;;;5.60;5.03;;;22.60;58.80;;;;;;5024295;28;20200;-80
2021/08/02 02:25:37;;;;;;;6.25;5.57;;;22.50;58.70;;;;;;4975391;28;20210;-80
2021/08/02 02:28:03;;;;;;;5.65;5.00;;;22.50;58.70;;;;;;5007718;28;20171;-80
2021/08/02 02:30:34;;;;;;;6.05;5.45;;;22.50;58.70;;;;;;5008454;28;20611;-80
2021/08/02 02:33:04;;;;;;;5.85;4.90;;;22.50;58.80;;;;;;5007450;28;20188;-80
2021/08/02 02:35:31;;;;;;;5.88;5.28;;;22.50;58.80;;;;;;5007169;28;20214;-80
2021/08/02 02:37:57;;;;;;;6.20;5.60;;;22.50;58.70;;;;;;5008346;28;20203;-80
2021/08/02 02:40:24;;;;;;;5.50;4.90;;;22.50;58.70;;;;;;5008021;28;20220;-80
2021/08/02 02:42:53;;;;;;;5.65;5.10;;;22.50;59.40;;;;;;5024228;28;20163;-80
2021/08/02 02:45:24;;;;;;;6.00;5.22;;;22.50;58.80;;;;;;5042670;28;20246;-80
2021/08/02 02:47:55;;;;;;;6.40;5.07;;;22.50;58.70;;;;;;5006682;28;20179;-81
2021/08/02 02:50:22;;;;;;;5.75;5.15;;;22.50;58.80;;;;;;4990456;28;20198;-81
2021/08/02 02:52:48;;;;;;;5.93;5.20;;;22.50;58.70;;;;;;5023451;28;20160;-81
2021/08/02 02:55:14;;;;;;;5.65;5.05;;;22.50;58.80;;;;;;5025006;28;20156;-81
2021/08/02 02:57:46;;;;;;;6.20;5.18;;;22.40;58.70;;;;;;5007011;28;20167;-82
2021/08/02 03:00:17;;;;;;;6.13;5.53;;;22.50;58.90;;;;;;5006580;28;20229;-81
2021/08/02 03:02:43;;;;;;;5.93;5.10;;;22.50;58.70;;;;;;5006426;28;20176;-81
2021/08/02 03:05:13;;;;;;;6.82;5.90;;;22.50;58.80;;;;;;5007231;28;20587;-81
2021/08/02 03:07:39;;;;;;;6.28;5.68;;;22.40;58.70;;;;;;5039003;28;20224;-81
2021/08/02 03:10:11;;;;;;;5.97;5.38;;;22.50;58.80;;;;;;4972081;28;20208;-81
2021/08/02 03:12:37;;;;;;;5.85;5.20;;;22.50;58.90;;;;;;5070772;28;20195;-81
2021/08/02 03:15:04;;;;;;;5.95;5.35;;;22.50;58.80;;;;;;5003776;28;20238;-81
2021/08/02 03:17:34;;;;;;;6.00;5.40;;;22.50;58.80;;;;;;5003860;28;20587;-81
2021/08/02 03:20:00;;;;;;;5.22;4.72;;;22.50;58.80;;;;;;5072321;28;20192;-81
2021/08/02 03:22:31;;;;;;;5.63;5.13;;;22.50;58.80;;;;;;5004137;28;20167;-81
2021/08/02 03:25:23;;;;;;;6.00;5.40;;;22.50;58.80;;;;;;4972109;28;20175;-81
2021/08/02 03:28:05;;;;;;;6.38;5.10;;;22.50;58.90;;;;;;4976941;28;20180;-81
2021/08/02 03:30:33;;;;;;;6.00;5.32;;;22.50;58.90;;;;;;4987743;28;20172;-82
2021/08/02 03:33:03;;;;;;;5.80;5.18;;;22.50;58.90;;;;;;5003859;28;20156;-81
2021/08/02 03:35:30;;;;;;;5.97;5.20;;;22.50;58.80;;;;;;5071384;28;20214;-80
2021/08/02 03:38:01;;;;;;;5.85;5.35;;;22.50;58.80;;;;;;5071372;28;20243;-81
2021/08/02 03:40:31;;;;;;;5.57;4.93;;;22.50;58.90;;;;;;5038009;28;20184;-81
2021/08/02 03:42:59;;;;;;;6.32;5.13;;;22.50;58.80;;;;;;5071454;28;20251;-81
2021/08/02 03:45:29;;;;;;;6.57;5.75;;;22.50;58.80;;;;;;4987121;28;20160;-80
2021/08/02 03:47:59;;;;;;;5.85;5.25;;;22.50;58.80;;;;;;5071079;28;20184;-81
2021/08/02 03:50:29;;;;;;;5.80;5.20;;;22.50;58.80;;;;;;5054518;28;20184;-81
2021/08/02 03:52:57;;;;;;;5.72;5.03;;;22.50;58.70;;;;;;5037298;28;20183;-80
2021/08/02 03:55:24;;;;;;;6.22;5.40;;;22.50;58.70;;;;;;5003181;28;20159;-80
2021/08/02 03:57:51;;;;;;;5.63;5.00;;;22.50;58.80;;;;;;4986719;28;20168;-80
2021/08/02 04:00:21;;;;;;;5.65;5.15;;;22.50;58.70;;;;;;5003155;28;20164;-80
2021/08/02 04:02:51;;;;;;;6.47;5.20;;;22.50;58.80;;;;;;4986701;28;20532;-80
2021/08/02 04:05:18;;;;;;;6.38;5.40;;;22.50;58.70;;;;;;5053536;28;20199;-81
2021/08/02 04:07:44;;;;;;;5.30;4.78;;;22.50;58.70;;;;;;5011583;28;20231;-80
2021/08/02 04:10:12;;;;;;;5.55;4.90;;;22.50;58.70;;;;;;4990440;28;20172;-80
2021/08/02 04:12:41;;;;;;;5.82;5.20;;;22.50;58.60;;;;;;4989508;28;20662;-81
2021/08/02 04:15:09;;;;;;;5.78;5.18;;;22.50;58.50;;;;;;5005494;28;20246;-80
2021/08/02 04:17:36;;;;;;;5.65;5.15;;;22.50;58.60;;;;;;5005463;28;20205;-80
2021/08/02 04:20:07;;;;;;;6.05;4.88;;;22.60;58.50;;;;;;4972684;28;20187;-81
2021/08/02 04:22:34;;;;;;;4.78;4.25;;;22.60;58.30;;;;;;5022671;28;20163;-80
2021/08/02 04:25:04;;;;;;;5.65;5.00;;;22.60;58.00;;;;;;5006473;28;20234;-80
2021/08/02 04:27:31;;;;;;;5.47;4.75;;;22.70;58.10;;;;;;5006663;28;20144;-81
2021/08/02 04:30:02;;;;;;;5.10;4.60;;;22.70;58.20;;;;;;5006920;28;20164;-80
2021/08/02 04:32:31;;;;;;;5.53;4.82;;;22.70;58.10;;;;;;4989718;28;20179;-80
2021/08/02 04:35:02;;;;;;;5.20;4.63;;;22.70;58.10;;;;;;4971828;28;20270;-80
2021/08/02 04:37:28;;;;;;;4.68;4.20;;;22.70;57.90;;;;;;5005276;28;20220;-80
2021/08/02 04:39:57;;;;;;;5.38;4.85;;;22.80;57.80;;;;;;5005919;28;20202;-80
2021/08/02 04:42:28;;;;;;;4.85;4.35;;;22.80;57.80;;;;;;5006196;28;20167;-80
2021/08/02 04:44:58;;;;;;;4.50;4.10;;;22.80;57.70;;;;;;5005918;28;20159;-80
2021/08/02 04:47:26;;;;;;;4.95;4.45;;;22.80;57.70;;;;;;4988949;28;20192;-81
2021/08/02 04:49:59;;;;;;;5.18;4.68;;;22.70;57.80;;;;;;4973477;28;20198;-80
2021/08/02 04:52:26;;;;;;;5.07;4.57;;;22.80;57.80;;;;;;4973672;28;20541;-80
2021/08/02 04:54:53;;;;;;;4.80;4.38;;;22.90;57.80;;;;;;4972706;28;20199;-80
2021/08/02 04:57:19;;;;;;;5.53;4.65;;;22.80;57.50;;;;;;5022778;28;20163;-80
2021/08/02 04:59:45;;;;;;;4.60;4.20;;;22.80;57.70;;;;;;5021929;28;20205;-80
2021/08/02 05:02:13;;;;;;;5.03;4.53;;;22.80;57.40;;;;;;4989585;28;20159;-81
2021/08/02 05:04:39;;;;;;;4.95;4.55;;;22.90;57.50;;;;;;5006109;28;20168;-80
2021/08/02 05:07:05;;;;;;;5.28;4.78;;;22.80;57.50;;;;;;4990738;28;20207;-81
2021/08/02 05:09:30;;;;;;;4.30;3.90;;;22.80;57.50;;;;;;5025477;28;20175;-81
2021/08/02 05:11:58;;;;;;;4.85;3.90;;;22.90;57.40;;;;;;5025281;28;20163;-80
2021/08/02 05:14:25;;;;;;;4.65;4.25;;;22.90;57.20;;;;;;5025652;28;20159;-80
2021/08/02 05:16:52;;;;;;;5.32;4.82;;;23.00;57.40;;;;;;5007703;28;20348;-82
2021/08/02 05:19:19;;;;;;;4.50;4.10;;;22.90;57.40;;;;;;5076257;28;20215;-80
2021/08/02 05:21:46;;;;;;;4.68;4.00;;;22.90;57.30;;;;;;5008095;28;20251;-80
2021/08/02 05:24:12;;;;;;;4.30;3.90;;;22.90;57.30;;;;;;4991677;28;20183;-81
2021/08/02 05:26:46;;;;;;;4.80;3.85;;;23.00;57.20;;;;;;5008797;28;20250;-80
2021/08/02 05:29:17;;;;;;;4.80;4.05;;;23.00;57.10;;;;;;5059142;28;20186;-81
2021/08/02 05:31:45;;;;;;;4.13;3.72;;;23.00;57.20;;;;;;5059289;28;20209;-81
2021/08/02 05:34:12;;;;;;;4.50;4.10;;;23.00;57.10;;;;;;5024654;28;20519;-80
2021/08/02 05:36:39;;;;;;;5.43;4.30;;;23.00;57.10;;;;;;5008098;28;20208;-81
2021/08/02 05:39:06;;;;;;;4.45;4.03;;;23.00;57.10;;;;;;5024888;28;20195;-81
2021/08/02 05:41:31;;;;;;;4.38;3.97;;;23.10;57.10;;;;;;5024315;28;20159;-81
2021/08/02 05:44:01;;;;;;;4.40;4.00;;;23.10;57.00;;;;;;5008939;28;20162;-81
2021/08/02 05:46:31;;;;;;;4.70;4.28;;;23.20;57.00;;;;;;5026962;28;20576;-80
2021/08/02 05:49:01;;;;;;;4.50;4.05;;;23.10;56.90;;;;;;5010439;28;20236;-80
2021/08/02 05:51:30;;;;;;;4.22;3.83;;;23.20;56.90;;;;;;4994723;28;20175;-80
2021/08/02 05:53:59;;;;;;;5.00;4.50;;;23.20;56.80;;;;;;5027245;28;20242;-80
2021/08/02 05:56:29;;;;;;;5.45;3.67;;;23.20;56.80;;;;;;5010865;28;20179;-80
2021/08/02 05:58:55;;;;;;;5.45;4.22;;;23.10;56.80;;;;;;4994415;28;20243;-80
2021/08/02 06:01:23;;;;;;;4.28;3.88;;;23.10;56.90;;;;;;5028571;28;20159;-80
2021/08/02 06:03:51;;;;;;;4.13;3.72;;;23.10;57.00;;;;;;5079783;28;20194;-81
2021/08/02 06:06:19;;;;;;;4.20;3.80;;;23.20;56.90;;;;;;5010379;28;20227;-80
2021/08/02 06:08:49;;;;;;;4.57;4.18;;;23.10;56.70;;;;;;5055900;28;20231;-80
2021/08/02 06:11:19;;;;;;;4.75;4.25;;;23.20;56.90;;;;;;4987910;28;20215;-81
2021/08/02 06:13:50;;;;;;;4.80;4.30;;;23.10;56.80;;;;;;4988355;28;20404;-80
2021/08/02 06:16:22;;;;;;;4.38;3.95;;;23.20;56.80;;;;;;4972035;28;20184;-80
2021/08/02 06:18:52;;;;;;;4.68;3.80;;;23.10;56.80;;;;;;5069928;28;20576;-80
2021/08/02 06:21:25;;;;;;;4.40;4.00;;;23.10;56.70;;;;;;5038827;28;20211;-80
2021/08/02 06:23:53;;;;;;;4.18;3.78;;;23.20;56.70;;;;;;4971765;28;20184;-80
2021/08/02 06:26:23;;;;;;;4.68;4.25;;;23.20;56.60;;;;;;4987376;28;20184;-81
2021/08/02 06:28:53;;;;;;;5.18;4.15;;;23.10;56.60;;;;;;4993023;28;20165;-83
2021/08/02 06:31:23;;;;;;;4.38;3.97;;;23.20;56.70;;;;;;5060360;28;20271;-82
2021/08/02 06:33:52;;;;;;;4.38;3.90;;;23.20;56.70;;;;;;5044283;28;20655;-82
2021/08/02 06:36:21;;;;;;;4.43;4.03;;;23.10;56.70;;;;;;4977567;28;20184;-81
2021/08/02 06:38:50;;;;;;;4.40;4.00;;;23.20;56.70;;;;;;5064106;28;20739;-82
2021/08/02 06:41:18;;;;;;;4.65;4.25;;;23.20;56.60;;;;;;5046949;28;20211;-79
2021/08/02 06:43:46;;;;;;;4.05;3.67;;;23.20;56.40;;;;;;5066092;28;20188;-85
2021/08/02 06:46:14;;;;;;;4.30;3.80;;;23.20;56.50;;;;;;4966867;28;20207;-86
2021/08/02 06:48:42;;;;;;;4.20;3.80;;;23.20;56.50;;;;;;5049830;28;20180;-83
2021/08/02 06:51:12;;;;;;;4.40;4.00;;;23.30;56.30;;;;;;5063041;28;20191;-84
2021/08/02 06:53:40;;;;;;;3.97;3.58;;;23.30;56.30;;;;;;4961021;28;20596;-84
2021/08/02 06:56:08;;;;;;;4.10;3.50;;;23.30;56.30;;;;;;4975243;28;20194;-80
2021/08/02 06:58:36;;;;;;;4.68;4.10;;;23.30;56.20;;;;;;5059522;28;20212;-85
2021/08/02 07:01:03;;;;;;;4.50;3.72;;;23.30;56.10;;;;;;5059538;28;20275;-82
2021/08/02 07:03:31;;;;;;;4.05;3.65;;;23.30;56.20;;;;;;5059719;28;20188;-80
2021/08/02 07:05:57;;;;;;;4.30;3.83;;;23.30;56.30;;;;;;5058838;28;20180;-82
2021/08/02 07:08:23;;;;;;;4.80;4.30;;;23.20;56.20;;;;;;5017550;28;20222;-80
2021/08/02 07:10:50;;;;;;;3.85;3.55;;;23.20;56.30;;;;;;5014244;28;20198;-84
2021/08/02 07:13:17;;;;;;;4.05;3.65;;;23.20;56.40;;;;;;5065105;28;20633;-82
2021/08/02 07:15:45;;;;;;;4.55;4.07;;;23.20;56.50;;;;;;5065055;28;20270;-84
2021/08/02 07:18:12;;;;;;;3.70;3.40;;;23.20;56.30;;;;;;4997289;28;20220;-79
2021/08/02 07:20:39;;;;;;;4.43;3.67;;;23.30;56.60;;;;;;5064955;28;20183;-81
2021/08/02 07:23:06;;;;;;;3.90;3.42;;;23.30;56.10;;;;;;4996788;28;20197;-83
2021/08/02 07:25:31;;;;;;;4.00;3.60;;;23.30;56.00;;;;;;5013931;28;20147;-81
2021/08/02 07:27:58;;;;;;;4.90;4.20;;;23.30;56.20;;;;;;5013534;28;20175;-79
2021/08/02 07:30:26;;;;;;;4.20;3.80;;;23.30;56.00;;;;;;5082035;28;20227;-81
2021/08/02 07:32:53;;;;;;;4.30;3.90;;;23.30;56.00;;;;;;5047689;28;20282;-82
2021/08/02 07:35:19;;;;;;;3.78;3.47;;;23.30;56.10;;;;;;5064344;28;20231;-82
2021/08/02 07:37:49;;;;;;;4.03;3.65;;;23.30;55.60;;;;;;5081638;28;20198;-82
2021/08/02 07:40:15;;;;;;;4.22;3.67;;;23.30;55.70;;;;;;5065101;28;20598;-80
2021/08/02 07:42:41;;;;;;;3.97;3.58;;;23.30;55.70;;;;;;5013567;28;20291;-81
2021/08/02 07:45:07;;;;;;;4.10;3.70;;;23.40;55.50;;;;;;5013489;28;20162;-81
2021/08/02 07:47:32;;;;;;;4.20;3.80;;;23.40;55.70;;;;;;4997715;28;20303;-82
2021/08/02 07:49:59;;;;;;;4.30;3.90;;;23.30;56.00;;;;;;5032221;28;20241;-83
2021/08/02 07:52:26;;;;;;;3.65;3.35;;;23.20;55.90;;;;;;4998755;28;20179;-84
2021/08/02 07:54:52;;;;;;;3.90;3.42;;;23.20;56.10;;;;;;5010206;28;20267;-80
2021/08/02 07:57:18;;;;;;;4.10;3.70;;;23.20;56.00;;;;;;4978422;28;20237;-78
2021/08/02 07:59:49;;;;;;;4.35;3.95;;;23.20;56.10;;;;;;4998947;28;20207;-79
2021/08/02 08:02:19;;;;;;;3.85;3.45;;;23.20;56.20;;;;;;4981279;28;20191;-79
2021/08/02 08:04:48;;;;;;;4.30;3.55;;;23.30;55.80;;;;;;5050993;28;20300;-85
2021/08/02 08:07:14;;;;;;;3.35;3.05;;;23.20;56.00;;;;;;5031981;28;20183;-86
2021/08/02 08:09:43;;;;;;;3.60;3.30;;;23.20;55.60;;;;;;4994270;28;20196;-81
2021/08/02 08:12:14;;;;;;;3.70;3.40;;;23.10;55.40;;;;;;4961416;28;20213;-81
2021/08/02 08:14:42;;;;;;;4.07;3.08;;;23.00;56.50;;;;;;4976820;28;20222;-84
2021/08/02 08:17:13;;;;;;;3.50;3.20;;;22.90;55.90;;;;;;4976252;28;20183;-86
2021/08/02 08:19:43;;;;;;;3.30;3.00;;;22.80;56.00;;;;;;5045058;28;20601;-81
2021/08/02 08:22:11;;;;;;;3.25;2.92;;;22.70;56.00;;;;;;5029714;28;20559;-84
2021/08/02 08:24:38;;;;;;;3.60;3.22;;;22.70;56.00;;;;;;4993209;28;20171;-82
2021/08/02 08:27:06;;;;;;;3.47;3.15;;;22.70;56.20;;;;;;4977292;28;20191;-82
2021/08/02 08:29:34;;;;;;;3.47;3.17;;;22.60;56.30;;;;;;5048019;28;20189;-82
2021/08/02 08:31:59;;;;;;;3.58;3.08;;;22.60;56.60;;;;;;5065142;28;20190;-80
2021/08/02 08:34:26;;;;;;;3.55;3.03;;;22.50;56.80;;;;;;5013347;28;20167;-86
2021/08/02 08:36:52;;;;;;;3.08;2.80;;;22.60;57.00;;;;;;5031851;28;20159;-84
2021/08/02 08:39:17;;;;;;;3.13;2.83;;;22.50;57.10;;;;;;4997340;28;20331;-84
2021/08/02 08:41:45;;;;;;;3.17;2.88;;;22.50;57.20;;;;;;5030771;28;20175;-83
2021/08/02 08:44:11;;;;;;;3.05;2.60;;;22.40;57.20;;;;;;4997854;28;20197;-82
2021/08/02 08:46:36;;;;;;;3.58;3.28;;;22.40;57.30;;;;;;4997150;28;20626;-81
2021/08/02 08:49:04;;;;;;;3.38;3.00;;;22.30;57.50;;;;;;5013640;28;20159;-81
2021/08/02 08:51:30;;;;;;;2.67;2.47;;;22.40;58.30;;;;;;5015768;28;20159;-80
2021/08/02 08:53:57;;;;;;;3.20;2.90;;;22.40;58.60;;;;;;5014612;28;20208;-83
2021/08/02 08:56:23;;;;;;;3.08;2.78;;;22.30;59.00;;;;;;5014878;28;20212;-79
2021/08/02 08:58:49;;;;;;;2.92;2.67;;;22.30;59.40;;;;;;4999487;28;20190;-80
2021/08/02 09:01:15;;;;;;;3.40;3.10;;;22.30;59.70;;;;;;5015892;28;20238;-84
2021/08/02 09:03:57;;;;;;;3.45;3.15;;;22.20;60.00;;;;;;5015324;28;20595;-78
2021/08/02 09:06:26;;;;;;;2.83;2.63;;;22.20;60.30;;;;;;5015720;28;20170;-80
2021/08/02 09:08:57;;;;;;;3.38;3.00;;;22.10;60.50;;;;;;5082684;28;20253;-79
2021/08/02 09:11:28;;;;;;;2.70;2.50;;;22.10;60.30;;;;;;4997682;28;20214;-83
2021/08/02 09:13:57;;;;;;;2.92;2.63;;;22.10;61.10;;;;;;4997088;28;20277;-86
2021/08/02 09:16:27;;;;;;;3.33;2.83;;;22.00;61.40;;;;;;4995961;28;20183;-80
2021/08/02 09:19:02;;;;;;;4.22;2.80;;;22.10;61.60;;;;;;5064030;28;20226;-82
2021/08/02 09:21:47;;;;;;;3.65;3.10;;;22.10;61.60;;;;;;5066946;28;20189;-84
2021/08/02 09:24:15;;;;;;;3.00;2.70;;;22.00;61.70;;;;;;4999995;28;20209;-83
2021/08/02 09:26:43;;;;;;;3.15;2.85;;;22.00;61.60;;;;;;5068443;28;20202;-82
2021/08/02 09:29:09;;;;;;;3.45;3.08;;;22.00;61.60;;;;;;4983204;28;20590;-84
2021/08/02 09:31:38;;;;;;;3.30;3.00;;;22.00;61.60;;;;;;5035580;28;20602;-82
2021/08/02 09:34:06;;;;;;;3.38;2.78;;;22.00;61.60;;;;;;5016576;28;20155;-83
2021/08/02 09:36:49;;;;;;;2.90;2.60;;;22.00;61.60;;;;;;5015830;28;20682;-79
2021/08/02 09:39:15;;;;;;;3.00;2.70;;;22.00;61.60;;;;;;5016035;28;20198;-84
2021/08/02 09:41:42;;;;;;;3.20;2.90;;;22.00;61.60;;;;;;5015276;28;20155;-83
2021/08/02 09:44:18;;;;;;;3.42;2.83;;;22.00;61.60;;;;;;4999458;28;20163;-80
2021/08/02 09:47:00;;;;;;;3.40;3.10;;;22.00;61.70;;;;;;4999093;28;20163;-82
2021/08/02 09:49:27;;;;;;;2.90;2.60;;;22.00;61.70;;;;;;5015460;28;20155;-80
2021/08/02 09:51:53;;;;;;;3.17;2.88;;;22.00;61.60;;;;;;5015558;28;20147;-83
2021/08/02 09:54:29;;;;;;;2.83;2.58;;;22.00;61.60;;;;;;5015851;28;20151;-87
2021/08/02 09:56:55;;;;;;;3.15;2.67;;;21.90;61.60;;;;;;5015281;28;20173;-84
2021/08/02 09:59:21;;;;;;;2.90;2.60;;;22.00;61.60;;;;;;5014999;28;20550;-80
2021/08/02 10:01:48;;;;;;;2.80;2.60;;;22.00;61.50;;;;;;4999106;28;20242;-80
2021/08/02 10:04:14;;;;;;;3.00;2.70;;;21.90;61.60;;;;;;4998652;28;20171;-80
2021/08/02 10:06:42;;;;;;;3.10;2.72;;;21.90;61.60;;;;;;5032615;28;20151;-78
2021/08/02 10:09:11;;;;;;;3.08;2.65;;;21.90;61.70;;;;;;5066093;28;20222;-82
2021/08/02 10:11:36;;;;;;;3.10;2.80;;;21.90;61.90;;;;;;5065877;28;20190;-80
2021/08/02 10:14:02;;;;;;;3.40;3.10;;;21.90;62.10;;;;;;5032530;28;20156;-79
2021/08/02 10:16:29;;;;;;;3.40;2.70;;;21.90;62.00;;;;;;5015270;28;20609;-82
2021/08/02 10:19:10;;;;;;;3.10;2.80;;;21.80;61.90;;;;;;4998655;28;20955;-83
2021/08/02 10:21:46;;;;;;;2.78;2.53;;;21.80;61.80;;;;;;4998409;28;20171;-78
2021/08/02 10:24:15;;;;;;;3.00;2.63;;;21.80;61.50;;;;;;5014846;28;20576;-82
2021/08/02 10:26:41;;;;;;;3.17;2.80;;;21.80;61.00;;;;;;5014652;28;20155;-82
2021/08/02 10:29:07;;;;;;;2.88;2.67;;;21.80;60.70;;;;;;5014728;28;20190;-84
2021/08/02 10:31:51;;;;;;;3.10;2.75;;;21.80;60.30;;;;;;5014060;28;20183;-82
2021/08/02 10:34:21;;;;;;;3.17;2.88;;;21.80;59.60;;;;;;4998601;28;20175;-83
2021/08/02 10:37:02;;;;;;;3.08;2.70;;;21.80;59.70;;;;;;4999361;28;20533;-81
2021/08/02 10:39:29;;;;;;;3.83;3.00;;;21.70;59.40;;;;;;5014399;28;20706;-84
2021/08/02 10:42:12;;;;;;;2.65;2.42;;;21.70;59.30;;;;;;5015640;28;20151;-81
2021/08/02 10:44:38;;;;;;;3.00;2.70;;;21.80;59.40;;;;;;5016155;28;20199;-82
2021/08/02 10:47:09;;;;;;;3.67;2.63;;;21.70;59.40;;;;;;5016833;28;20162;-79
2021/08/02 10:49:36;;;;;;;2.80;2.53;;;21.70;59.50;;;;;;5017715;28;20163;-79
2021/08/02 10:52:01;;;;;;;2.60;2.40;;;21.70;59.60;;;;;;5001146;28;20159;-80
2021/08/02 10:54:42;;;;;;;2.63;2.42;;;21.70;59.90;;;;;;5016698;28;20659;-80
2021/08/02 10:57:13;;;;;;;3.13;2.72;;;21.70;59.90;;;;;;5016095;28;20175;-79
2021/08/02 10:59:40;;;;;;;2.95;2.67;;;21.70;60.00;;;;;;5083514;28;20219;-83
2021/08/02 11:02:09;;;;;;;2.85;2.53;;;21.70;60.20;;;;;;5000524;28;20186;-80
2021/08/02 11:04:35;;;;;;;2.78;2.40;;;21.60;60.10;;;;;;5019395;28;20249;-82
2021/08/02 11:07:02;;;;;;;2.92;2.60;;;21.60;60.30;;;;;;5018796;28;20544;-81
2021/08/02 11:09:29;;;;;;;2.42;2.22;;;21.70;60.40;;;;;;4978958;28;20234;-80
2021/08/02 11:12:05;;;;;;;2.97;2.67;;;21.70;60.50;;;;;;5010762;28;20158;-82
2021/08/02 11:14:31;;;;;;;2.47;2.28;;;21.70;60.60;;;;;;5027503;28;20156;-84
2021/08/02 11:16:57;;;;;;;2.42;2.22;;;21.60;60.70;;;;;;5122089;28;20152;-81
2021/08/02 11:19:25;;;;;;;2.88;2.38;;;21.60;60.70;;;;;;5121842;28;20188;-80
2021/08/02 11:22:03;;;;;;;2.70;2.30;;;21.60;60.70;;;;;;5105542;28;20196;-79
2021/08/02 11:24:34;;;;;;;2.80;2.47;;;21.60;60.80;;;;;;5071929;28;20155;-81
2021/08/02 11:27:03;;;;;;;2.67;2.35;;;21.60;60.70;;;;;;5019835;28;20546;-80
2021/08/02 11:29:30;;;;;;;2.60;2.33;;;21.60;60.70;;;;;;5004578;28;20163;-80
2021/08/02 11:31:59;;;;;;;2.58;2.20;;;21.60;60.60;;;;;;4988190;28;20262;-79
2021/08/02 11:34:26;;;;;;;2.30;2.10;;;21.60;60.60;;;;;;5019216;28;20208;-78
2021/08/02 11:37:04;;;;;;;2.55;2.33;;;21.60;60.50;;;;;;5019598;28;20164;-80
2021/08/02 11:39:31;;;;;;;2.42;2.22;;;21.60;60.60;;;;;;5014921;28;20669;-82
2021/08/02 11:42:06;;;;;;;2.10;1.90;;;21.60;60.50;;;;;;5038492;28;20202;-81
2021/08/02 11:44:35;;;;;;;2.38;2.17;;;21.60;60.40;;;;;;4993077;28;20276;-85
2021/08/02 11:47:02;;;;;;;2.25;2.05;;;21.60;60.40;;;;;;4986270;28;20201;-78
2021/08/02 11:49:28;;;;;;;2.20;2.00;;;21.60;60.30;;;;;;4986291;28;20172;-79
2021/08/02 11:51:56;;;;;;;2.25;2.05;;;21.60;60.40;;;;;;4994046;28;20170;-82
2021/08/02 11:54:23;;;;;;;3.00;2.08;;;21.60;60.40;;;;;;4984648;28;20514;-79
2021/08/02 11:56:49;;;;;;;2.42;2.20;;;21.60;60.30;;;;;;4984543;28;20612;-80
2021/08/02 11:59:23;;;;;;;2.75;2.10;;;21.60;60.40;;;;;;4987212;28;20227;-81
2021/08/02 12:01:51;;;;;;;2.08;1.92;;;21.50;60.30;;;;;;5004449;28;20163;-79
2021/08/02 12:04:17;;;;;;;2.33;2.00;;;21.50;60.30;;;;;;5004192;28;20591;-81
2021/08/02 12:06:52;;;;;;;2.20;2.00;;;21.60;60.30;;;;;;5020398;28;20159;-81
2021/08/02 12:09:34;;;;;;;2.55;2.35;;;21.50;60.30;;;;;;5038369;28;20218;-79
2021/08/02 12:12:02;;;;;;;1.95;1.80;;;21.50;60.50;;;;;;5038913;28;20162;-78
2021/08/02 12:14:30;;;;;;;1.88;1.77;;;21.50;60.10;;;;;;5024249;28;20604;-83
2021/08/02 12:17:03;;;;;;;2.10;1.90;;;21.50;60.20;;;;;;5020331;28;20185;-83
2021/08/02 12:19:30;;;;;;;1.90;1.80;;;21.50;60.20;;;;;;5004257;28;20213;-81
2021/08/02 12:21:59;;;;;;;1.67;1.58;;;21.50;60.10;;;;;;5106840;28;20190;-80
2021/08/02 12:24:25;;;;;;;2.13;1.90;;;21.50;60.00;;;;;;5072444;28;20186;-80
2021/08/02 12:26:56;;;;;;;2.17;1.98;;;21.50;60.00;;;;;;5038899;28;20248;-81
2021/08/02 12:29:28;;;;;;;1.98;1.88;;;21.50;60.00;;;;;;5086446;28;20190;-81
2021/08/02 12:31:58;;;;;;;2.17;1.98;;;21.40;60.00;;;;;;5089964;28;20186;-80
2021/08/02 12:34:26;;;;;;;2.10;1.90;;;21.40;60.00;;;;;;5087817;28;20228;-81
2021/08/02 12:36:54;;;;;;;2.15;1.95;;;21.40;60.00;;;;;;5020568;28;20157;-83
2021/08/02 12:39:22;;;;;;;1.67;1.58;;;21.40;59.90;;;;;;5035452;28;20725;-80
2021/08/02 12:41:47;;;;;;;1.95;1.83;;;21.50;59.90;;;;;;5000323;28;20171;-81
2021/08/02 12:44:15;;;;;;;1.80;1.70;;;21.40;60.00;;;;;;5001723;28;20167;-78
2021/08/02 12:46:41;;;;;;;1.75;1.65;;;21.40;59.90;;;;;;5022565;28;20166;-81
2021/08/02 12:49:07;;;;;;;1.80;1.70;;;21.40;59.90;;;;;;5019738;28;20257;-79
2021/08/02 12:51:33;;;;;;;2.10;1.90;;;21.40;59.90;;;;;;5019308;28;20270;-79
2021/08/02 12:54:02;;;;;;;1.90;1.75;;;21.40;59.90;;;;;;5037113;28;20163;-81
2021/08/02 12:56:28;;;;;;;2.20;2.00;;;21.40;60.00;;;;;;5025920;28;20170;-78
2021/08/02 12:58:54;;;;;;;2.15;1.95;;;21.40;60.10;;;;;;5043132;28;20269;-78